sensor_id;sensor_type;location;lat;lon;timestamp;pressure;altitude;pressure_sealevel;temperature;humidity
27040;BME280;14589;51.578;7.306;2024-02-26T00:00:49;99421.28;;;4.89;91.48
27040;BME280;14589;51.578;7.306;2024-02-26T00:03:19;99404.03;;;4.82;91.46
27040;BME280;14589;51.578;7.306;2024-02-26T00:05:50;99411.38;;;4.89;92.06
27040;BME280;14589;51.578;7.306;2024-02-26T00:08:20;99412.50;;;4.97;91.58
27040;BME280;14589;51.578;7.306;2024-02-26T00:10:50;99412.81;;;4.84;91.74
27040;BME280;14589;51.578;7.306;2024-02-26T00:13:21;99411.50;;;4.88;91.95
27040;BME280;14589;51.578;7.306;2024-02-26T00:15:52;99402.47;;;4.89;92.77
27040;BME280;14589;51.578;7.306;2024-02-26T00:18:22;99404.69;;;5.03;91.44
27040;BME280;14589;51.578;7.306;2024-02-26T00:20:53;99400.34;;;4.93;90.51
27040;BME280;14589;51.578;7.306;2024-02-26T00:23:24;99402.63;;;4.87;91.61
27040;BME280;14589;51.578;7.306;2024-02-26T00:25:54;99397.81;;;4.91;91.53
27040;BME280;14589;51.578;7.306;2024-02-26T00:28:24;99392.72;;;4.88;92.03
27040;BME280;14589;51.578;7.306;2024-02-26T00:30:55;99394.00;;;4.84;91.82
27040;BME280;14589;51.578;7.306;2024-02-26T00:33:26;99390.88;;;4.98;91.73
27040;BME280;14589;51.578;7.306;2024-02-26T00:35:56;99374.59;;;5.00;90.96
27040;BME280;14589;51.578;7.306;2024-02-26T00:38:27;99389.31;;;4.96;91.31
27040;BME280;14589;51.578;7.306;2024-02-26T00:40:57;99396.81;;;4.92;91.85
27040;BME280;14589;51.578;7.306;2024-02-26T00:43:28;99396.81;;;4.92;91.87
27040;BME280;14589;51.578;7.306;2024-02-26T00:45:58;99406.44;;;4.85;92.46
27040;BME280;14589;51.578;7.306;2024-02-26T00:48:29;99404.88;;;4.92;92.31
27040;BME280;14589;51.578;7.306;2024-02-26T00:50:59;99398.41;;;4.75;92.02
27040;BME280;14589;51.578;7.306;2024-02-26T00:53:29;99404.88;;;4.92;93.12
27040;BME280;14589;51.578;7.306;2024-02-26T00:56:00;99405.28;;;4.97;91.69
27040;BME280;14589;51.578;7.306;2024-02-26T00:58:30;99408.41;;;4.93;92.23
27040;BME280;14589;51.578;7.306;2024-02-26T01:01:01;99408.63;;;5.09;91.14
27040;BME280;14589;51.578;7.306;2024-02-26T01:03:31;99399.72;;;5.08;89.80
27040;BME280;14589;51.578;7.306;2024-02-26T01:06:02;99392.66;;;5.07;90.50
27040;BME280;14589;51.578;7.306;2024-02-26T01:08:32;99401.69;;;5.16;89.74
27040;BME280;14589;51.578;7.306;2024-02-26T01:11:03;99399.19;;;5.05;89.28
27040;BME280;14589;51.578;7.306;2024-02-26T01:13:33;99414.16;;;5.07;90.25
27040;BME280;14589;51.578;7.306;2024-02-26T01:16:04;99404.38;;;5.16;89.66
27040;BME280;14589;51.578;7.306;2024-02-26T01:18:34;99402.41;;;5.08;89.95
27040;BME280;14589;51.578;7.306;2024-02-26T01:21:05;99397.75;;;5.01;89.71
27040;BME280;14589;51.578;7.306;2024-02-26T01:23:38;99391.38;;;5.11;89.82
27040;BME280;14589;51.578;7.306;2024-02-26T01:26:09;99380.47;;;5.13;89.23
27040;BME280;14589;51.578;7.306;2024-02-26T01:28:39;99382.44;;;5.20;89.37
27040;BME280;14589;51.578;7.306;2024-02-26T01:31:10;99388.00;;;5.09;89.43
27040;BME280;14589;51.578;7.306;2024-02-26T01:33:40;99390.94;;;5.16;88.64
27040;BME280;14589;51.578;7.306;2024-02-26T01:36:10;99396.31;;;5.16;89.17
27040;BME280;14589;51.578;7.306;2024-02-26T01:38:41;99393.91;;;5.13;89.31
27040;BME280;14589;51.578;7.306;2024-02-26T01:41:13;99388.13;;;5.08;89.25
27040;BME280;14589;51.578;7.306;2024-02-26T01:43:44;99402.56;;;5.07;89.21
27040;BME280;14589;51.578;7.306;2024-02-26T01:46:16;99386.69;;;5.13;88.73
27040;BME280;14589;51.578;7.306;2024-02-26T01:48:47;99399.53;;;5.19;88.37
27040;BME280;14589;51.578;7.306;2024-02-26T01:51:20;99413.72;;;5.12;89.23
27040;BME280;14589;51.578;7.306;2024-02-26T01:53:51;99406.75;;;5.19;89.35
27040;BME280;14589;51.578;7.306;2024-02-26T01:56:22;99404.22;;;5.17;88.82
27040;BME280;14589;51.578;7.306;2024-02-26T01:58:52;99419.78;;;5.14;89.76
27040;BME280;14589;51.578;7.306;2024-02-26T02:01:25;99415.97;;;5.16;88.32
27040;BME280;14589;51.578;7.306;2024-02-26T02:03:59;99403.44;;;5.35;88.11
27040;BME280;14589;51.578;7.306;2024-02-26T02:06:29;99398.78;;;5.37;87.36
27040;BME280;14589;51.578;7.306;2024-02-26T02:09:00;99394.41;;;5.26;87.63
27040;BME280;14589;51.578;7.306;2024-02-26T02:11:36;99407.25;;;5.32;87.80
27040;BME280;14589;51.578;7.306;2024-02-26T02:14:07;99399.97;;;5.24;88.00
27040;BME280;14589;51.578;7.306;2024-02-26T02:16:38;99400.38;;;5.20;88.22
27040;BME280;14589;51.578;7.306;2024-02-26T02:19:08;99400.97;;;5.23;89.38
27040;BME280;14589;51.578;7.306;2024-02-26T02:21:38;99403.34;;;5.26;89.19
27040;BME280;14589;51.578;7.306;2024-02-26T02:24:09;99400.19;;;5.31;88.28
27040;BME280;14589;51.578;7.306;2024-02-26T02:26:39;99390.03;;;5.25;88.78
27040;BME280;14589;51.578;7.306;2024-02-26T02:29:11;99386.94;;;5.29;87.49
27040;BME280;14589;51.578;7.306;2024-02-26T02:31:42;99399.25;;;5.22;88.35
27040;BME280;14589;51.578;7.306;2024-02-26T02:34:13;99398.00;;;5.17;88.78
27040;BME280;14589;51.578;7.306;2024-02-26T02:37:02;99404.50;;;5.14;89.46
27040;BME280;14589;51.578;7.306;2024-02-26T02:39:33;99400.25;;;5.21;88.68
27040;BME280;14589;51.578;7.306;2024-02-26T02:42:04;99409.19;;;5.12;89.04
27040;BME280;14589;51.578;7.306;2024-02-26T02:44:34;99408.19;;;5.13;88.42
27040;BME280;14589;51.578;7.306;2024-02-26T02:47:04;99416.09;;;5.15;88.82
27040;BME280;14589;51.578;7.306;2024-02-26T02:49:35;99414.97;;;5.17;88.66
27040;BME280;14589;51.578;7.306;2024-02-26T02:52:05;99406.09;;;5.07;88.63
27040;BME280;14589;51.578;7.306;2024-02-26T02:54:36;99426.31;;;5.11;88.50
27040;BME280;14589;51.578;7.306;2024-02-26T02:57:08;99424.03;;;5.16;88.98
27040;BME280;14589;51.578;7.306;2024-02-26T02:59:39;99414.09;;;5.26;88.22
27040;BME280;14589;51.578;7.306;2024-02-26T03:02:09;99430.22;;;5.26;88.10
27040;BME280;14589;51.578;7.306;2024-02-26T03:04:40;99422.84;;;5.28;88.43
27040;BME280;14589;51.578;7.306;2024-02-26T03:07:10;99424.81;;;5.36;87.80
27040;BME280;14589;51.578;7.306;2024-02-26T03:09:40;99428.88;;;5.40;87.05
27040;BME280;14589;51.578;7.306;2024-02-26T03:12:11;99421.09;;;5.37;86.90
27040;BME280;14589;51.578;7.306;2024-02-26T03:14:41;99427.38;;;5.28;86.83
27040;BME280;14589;51.578;7.306;2024-02-26T03:17:12;99434.19;;;5.22;87.32
27040;BME280;14589;51.578;7.306;2024-02-26T03:19:44;99435.31;;;5.29;86.97
27040;BME280;14589;51.578;7.306;2024-02-26T03:22:17;99439.00;;;5.19;87.27
27040;BME280;14589;51.578;7.306;2024-02-26T03:24:47;99446.38;;;5.17;87.70
27040;BME280;14589;51.578;7.306;2024-02-26T03:27:18;99448.03;;;5.27;86.67
27040;BME280;14589;51.578;7.306;2024-02-26T03:29:48;99447.19;;;5.27;87.38
27040;BME280;14589;51.578;7.306;2024-02-26T03:32:19;99451.72;;;5.26;86.69
27040;BME280;14589;51.578;7.306;2024-02-26T03:34:49;99447.81;;;5.48;86.00
27040;BME280;14589;51.578;7.306;2024-02-26T03:37:20;99445.41;;;5.45;85.00
27040;BME280;14589;51.578;7.306;2024-02-26T03:39:50;99438.53;;;5.33;85.66
27040;BME280;14589;51.578;7.306;2024-02-26T03:42:20;99445.47;;;5.36;86.40
27040;BME280;14589;51.578;7.306;2024-02-26T03:44:51;99444.63;;;5.35;86.44
27040;BME280;14589;51.578;7.306;2024-02-26T03:47:21;99441.78;;;5.37;86.05
27040;BME280;14589;51.578;7.306;2024-02-26T03:49:52;99445.28;;;5.47;86.49
27040;BME280;14589;51.578;7.306;2024-02-26T03:52:22;99426.72;;;5.44;87.14
27040;BME280;14589;51.578;7.306;2024-02-26T03:54:52;99435.50;;;5.46;86.35
27040;BME280;14589;51.578;7.306;2024-02-26T03:57:23;99445.28;;;5.47;87.03
27040;BME280;14589;51.578;7.306;2024-02-26T03:59:53;99463.25;;;5.46;87.57
27040;BME280;14589;51.578;7.306;2024-02-26T04:02:24;99444.09;;;5.49;87.69
27040;BME280;14589;51.578;7.306;2024-02-26T04:04:55;99452.34;;;5.48;87.86
27040;BME280;14589;51.578;7.306;2024-02-26T04:07:25;99452.38;;;5.38;88.52
27040;BME280;14589;51.578;7.306;2024-02-26T04:09:56;99459.50;;;5.29;90.11
27040;BME280;14589;51.578;7.306;2024-02-26T04:12:27;99457.91;;;5.37;91.23
27040;BME280;14589;51.578;7.306;2024-02-26T04:14:57;99442.78;;;5.36;91.21
27040;BME280;14589;51.578;7.306;2024-02-26T04:17:27;99442.91;;;5.34;92.47
27040;BME280;14589;51.578;7.306;2024-02-26T04:19:58;99434.72;;;5.36;93.35
27040;BME280;14589;51.578;7.306;2024-02-26T04:22:28;99442.31;;;5.40;93.86
27040;BME280;14589;51.578;7.306;2024-02-26T04:24:59;99444.75;;;5.34;94.19
27040;BME280;14589;51.578;7.306;2024-02-26T04:27:29;99435.84;;;5.33;95.29
27040;BME280;14589;51.578;7.306;2024-02-26T04:30:00;99438.66;;;5.41;95.19
27040;BME280;14589;51.578;7.306;2024-02-26T04:32:30;99445.28;;;5.47;94.83
27040;BME280;14589;51.578;7.306;2024-02-26T04:35:02;99438.06;;;5.38;95.84
27040;BME280;14589;51.578;7.306;2024-02-26T04:37:33;99442.78;;;5.36;95.63
27040;BME280;14589;51.578;7.306;2024-02-26T04:40:03;99433.59;;;5.28;96.56
27040;BME280;14589;51.578;7.306;2024-02-26T04:42:34;99428.50;;;5.25;96.74
27040;BME280;14589;51.578;7.306;2024-02-26T04:45:05;99435.97;;;5.32;97.28
27040;BME280;14589;51.578;7.306;2024-02-26T04:47:37;99426.84;;;5.24;96.75
27040;BME280;14589;51.578;7.306;2024-02-26T04:50:07;99426.00;;;5.24;96.20
27040;BME280;14589;51.578;7.306;2024-02-26T04:52:38;99439.13;;;5.27;97.62
27040;BME280;14589;51.578;7.306;2024-02-26T04:55:08;99426.00;;;5.24;96.99
27040;BME280;14589;51.578;7.306;2024-02-26T04:57:39;99428.25;;;5.19;96.00
27040;BME280;14589;51.578;7.306;2024-02-26T05:00:09;99438.19;;;5.18;99.00
27040;BME280;14589;51.578;7.306;2024-02-26T05:02:40;99442.84;;;5.16;98.17
27040;BME280;14589;51.578;7.306;2024-02-26T05:05:10;99458.13;;;5.06;98.90
27040;BME280;14589;51.578;7.306;2024-02-26T05:07:42;99452.66;;;4.98;98.86
27040;BME280;14589;51.578;7.306;2024-02-26T05:10:13;99467.34;;;5.04;100.00
27040;BME280;14589;51.578;7.306;2024-02-26T05:12:43;99455.34;;;4.98;99.78
27040;BME280;14589;51.578;7.306;2024-02-26T05:15:14;99468.91;;;4.97;100.00
27040;BME280;14589;51.578;7.306;2024-02-26T05:17:48;99461.84;;;4.86;100.00
27040;BME280;14589;51.578;7.306;2024-02-26T05:20:18;99467.78;;;4.89;100.00
27040;BME280;14589;51.578;7.306;2024-02-26T05:22:49;99463.25;;;4.90;100.00
27040;BME280;14589;51.578;7.306;2024-02-26T05:25:20;99470.28;;;5.01;100.00
27040;BME280;14589;51.578;7.306;2024-02-26T05:27:50;99492.09;;;4.98;100.00
27040;BME280;14589;51.578;7.306;2024-02-26T05:30:20;99487.16;;;4.93;100.00
27040;BME280;14589;51.578;7.306;2024-02-26T05:32:51;99493.50;;;4.82;100.00
27040;BME280;14589;51.578;7.306;2024-02-26T05:35:21;99492.81;;;4.80;100.00
27040;BME280;14589;51.578;7.306;2024-02-26T05:37:51;99474.00;;;4.90;100.00
27040;BME280;14589;51.578;7.306;2024-02-26T05:40:22;99489.41;;;4.98;100.00
27040;BME280;14589;51.578;7.306;2024-02-26T05:42:52;99487.25;;;5.01;100.00
27040;BME280;14589;51.578;7.306;2024-02-26T05:45:22;99487.44;;;5.00;100.00
27040;BME280;14589;51.578;7.306;2024-02-26T05:47:53;99497.63;;;4.86;100.00
27040;BME280;14589;51.578;7.306;2024-02-26T05:50:23;99508.94;;;4.80;100.00
27040;BME280;14589;51.578;7.306;2024-02-26T05:52:53;99508.09;;;4.80;100.00
27040;BME280;14589;51.578;7.306;2024-02-26T05:55:24;99506.38;;;4.79;100.00
27040;BME280;14589;51.578;7.306;2024-02-26T05:57:54;99524.75;;;4.83;100.00
27040;BME280;14589;51.578;7.306;2024-02-26T06:00:24;99524.31;;;4.98;100.00
27040;BME280;14589;51.578;7.306;2024-02-26T06:02:55;99511.06;;;4.86;100.00
27040;BME280;14589;51.578;7.306;2024-02-26T06:05:25;99523.16;;;5.00;100.00
27040;BME280;14589;51.578;7.306;2024-02-26T06:07:56;99527.56;;;5.01;100.00
27040;BME280;14589;51.578;7.306;2024-02-26T06:10:27;99535.19;;;4.96;100.00
27040;BME280;14589;51.578;7.306;2024-02-26T06:12:57;99541.72;;;4.84;100.00
27040;BME280;14589;51.578;7.306;2024-02-26T06:15:27;99534.91;;;4.89;100.00
27040;BME280;14589;51.578;7.306;2024-02-26T06:17:58;99534.91;;;4.89;100.00
27040;BME280;14589;51.578;7.306;2024-02-26T06:20:28;99537.19;;;4.84;100.00
27040;BME280;14589;51.578;7.306;2024-02-26T06:22:59;99536.34;;;4.84;100.00
27040;BME280;14589;51.578;7.306;2024-02-26T06:25:29;99543.97;;;4.88;100.00
27040;BME280;14589;51.578;7.306;2024-02-26T06:27:59;99548.78;;;4.85;100.00
27040;BME280;14589;51.578;7.306;2024-02-26T06:30:30;99544.69;;;4.91;100.00
27040;BME280;14589;51.578;7.306;2024-02-26T06:33:00;99537.91;;;4.86;100.00
27040;BME280;14589;51.578;7.306;2024-02-26T06:35:31;99537.91;;;4.86;100.00
27040;BME280;14589;51.578;7.306;2024-02-26T06:38:02;99546.22;;;4.83;100.00
27040;BME280;14589;51.578;7.306;2024-02-26T06:40:32;99545.81;;;4.88;100.00
27040;BME280;14589;51.578;7.306;2024-02-26T06:43:03;99541.28;;;4.88;100.00
27040;BME280;14589;51.578;7.306;2024-02-26T06:45:33;99546.50;;;4.90;100.00
27040;BME280;14589;51.578;7.306;2024-02-26T06:48:04;99546.94;;;4.85;100.00
27040;BME280;14589;51.578;7.306;2024-02-26T06:50:34;99541.44;;;4.87;100.00
27040;BME280;14589;51.578;7.306;2024-02-26T06:53:05;99547.94;;;4.84;100.00
27040;BME280;14589;51.578;7.306;2024-02-26T06:55:37;99548.47;;;4.88;100.00
27040;BME280;14589;51.578;7.306;2024-02-26T06:58:10;99544.13;;;4.77;100.00
27040;BME280;14589;51.578;7.306;2024-02-26T07:00:40;99544.97;;;4.78;100.00
27040;BME280;14589;51.578;7.306;2024-02-26T07:03:11;99552.19;;;4.87;100.00
27040;BME280;14589;51.578;7.306;2024-02-26T07:05:41;99547.22;;;4.92;100.00
27040;BME280;14589;51.578;7.306;2024-02-26T07:08:12;99539.19;;;4.92;100.00
27040;BME280;14589;51.578;7.306;2024-02-26T07:10:42;99555.41;;;5.00;100.00
27040;BME280;14589;51.578;7.306;2024-02-26T07:13:13;99563.75;;;5.07;100.00
27040;BME280;14589;51.578;7.306;2024-02-26T07:15:43;99568.28;;;4.97;100.00
27040;BME280;14589;51.578;7.306;2024-02-26T07:18:14;99566.72;;;4.94;100.00
27040;BME280;14589;51.578;7.306;2024-02-26T07:20:44;99556.56;;;4.98;100.00
27040;BME280;14589;51.578;7.306;2024-02-26T07:23:14;99571.41;;;5.11;100.00
27040;BME280;14589;51.578;7.306;2024-02-26T07:25:45;99565.59;;;5.06;100.00
27040;BME280;14589;51.578;7.306;2024-02-26T07:28:17;99568.16;;;5.17;100.00
27040;BME280;14589;51.578;7.306;2024-02-26T07:30:48;99572.38;;;5.10;100.00
27040;BME280;14589;51.578;7.306;2024-02-26T07:33:18;99570.69;;;5.09;100.00
27040;BME280;14589;51.578;7.306;2024-02-26T07:35:48;99564.03;;;5.04;100.00
27040;BME280;14589;51.578;7.306;2024-02-26T07:38:19;99580.16;;;5.13;100.00
27040;BME280;14589;51.578;7.306;2024-02-26T07:40:49;99568.69;;;5.02;100.00
27040;BME280;14589;51.578;7.306;2024-02-26T07:43:20;99577.03;;;5.08;100.00
27040;BME280;14589;51.578;7.306;2024-02-26T07:45:50;99579.16;;;5.14;100.00
27040;BME280;14589;51.578;7.306;2024-02-26T07:48:20;99582.16;;;5.11;100.00
27040;BME280;14589;51.578;7.306;2024-02-26T07:50:51;99590.63;;;5.07;100.00
27040;BME280;14589;51.578;7.306;2024-02-26T07:53:21;99589.50;;;5.09;100.00
27040;BME280;14589;51.578;7.306;2024-02-26T07:55:51;99587.78;;;5.08;100.00
27040;BME280;14589;51.578;7.306;2024-02-26T07:58:23;99594.84;;;5.19;100.00
27040;BME280;14589;51.578;7.306;2024-02-26T08:00:53;99591.88;;;5.12;100.00
27040;BME280;14589;51.578;7.306;2024-02-26T08:03:24;99606.19;;;5.22;100.00
27040;BME280;14589;51.578;7.306;2024-02-26T08:05:54;99605.59;;;5.28;100.00
27040;BME280;14589;51.578;7.306;2024-02-26T08:08:25;99615.78;;;5.25;100.00
27040;BME280;14589;51.578;7.306;2024-02-26T08:10:55;99607.59;;;5.17;100.00
27040;BME280;14589;51.578;7.306;2024-02-26T08:13:26;99609.16;;;5.29;100.00
27040;BME280;14589;51.578;7.306;2024-02-26T08:15:56;99605.59;;;5.28;100.00
27040;BME280;14589;51.578;7.306;2024-02-26T08:18:27;99626.09;;;5.39;100.00
27040;BME280;14589;51.578;7.306;2024-02-26T08:20:57;99631.34;;;5.41;100.00
27040;BME280;14589;51.578;7.306;2024-02-26T08:23:27;99621.31;;;5.43;100.00
27040;BME280;14589;51.578;7.306;2024-02-26T08:25:58;99633.03;;;5.42;100.00
27040;BME280;14589;51.578;7.306;2024-02-26T08:28:28;99636.72;;;5.41;100.00
27040;BME280;14589;51.578;7.306;2024-02-26T08:30:58;99632.47;;;5.38;100.00
27040;BME280;14589;51.578;7.306;2024-02-26T08:33:30;99640.22;;;5.51;100.00
27040;BME280;14589;51.578;7.306;2024-02-26T08:36:08;99639.97;;;5.54;100.00
27040;BME280;14589;51.578;7.306;2024-02-26T08:38:38;99629.06;;;5.55;100.00
27040;BME280;14589;51.578;7.306;2024-02-26T08:41:09;99639.66;;;5.57;100.00
27040;BME280;14589;51.578;7.306;2024-02-26T08:43:39;99640.78;;;5.64;100.00
27040;BME280;14589;51.578;7.306;2024-02-26T08:46:12;99635.41;;;5.64;100.00
27040;BME280;14589;51.578;7.306;2024-02-26T08:48:43;99647.16;;;5.63;100.00
27040;BME280;14589;51.578;7.306;2024-02-26T08:51:13;99638.94;;;5.64;100.00
27040;BME280;14589;51.578;7.306;2024-02-26T08:53:43;99639.22;;;5.71;100.00
27040;BME280;14589;51.578;7.306;2024-02-26T08:56:14;99638.81;;;5.66;100.00
27040;BME280;14589;51.578;7.306;2024-02-26T08:58:47;99643.47;;;5.74;100.00
27040;BME280;14589;51.578;7.306;2024-02-26T09:01:19;99636.34;;;5.82;100.00
27040;BME280;14589;51.578;7.306;2024-02-26T09:03:49;99628.16;;;5.84;100.00
27040;BME280;14589;51.578;7.306;2024-02-26T09:06:20;99638.63;;;5.77;100.00
27040;BME280;14589;51.578;7.306;2024-02-26T09:08:50;99646.28;;;5.91;100.00
27040;BME280;14589;51.578;7.306;2024-02-26T09:11:21;99636.06;;;5.85;100.00
27040;BME280;14589;51.578;7.306;2024-02-26T09:13:51;99644.00;;;5.96;100.00
27040;BME280;14589;51.578;7.306;2024-02-26T09:16:21;99641.44;;;6.04;100.00
27040;BME280;14589;51.578;7.306;2024-02-26T09:18:52;99654.91;;;5.95;100.00
27040;BME280;14589;51.578;7.306;2024-02-26T09:21:22;99657.00;;;6.01;100.00
27040;BME280;14589;51.578;7.306;2024-02-26T09:23:54;99656.16;;;6.00;100.00
27040;BME280;14589;51.578;7.306;2024-02-26T09:26:25;99664.50;;;6.07;100.00
27040;BME280;14589;51.578;7.306;2024-02-26T09:28:55;99670.28;;;6.12;100.00
27040;BME280;14589;51.578;7.306;2024-02-26T09:31:25;99681.91;;;6.13;100.00
27040;BME280;14589;51.578;7.306;2024-02-26T09:33:56;99678.41;;;6.02;100.00
27040;BME280;14589;51.578;7.306;2024-02-26T09:36:26;99677.94;;;6.17;100.00
27040;BME280;14589;51.578;7.306;2024-02-26T09:38:56;99670.44;;;6.11;100.00
27040;BME280;14589;51.578;7.306;2024-02-26T09:41:30;99671.00;;;6.14;99.56
27040;BME280;14589;51.578;7.306;2024-02-26T09:44:02;99685.00;;;6.18;100.00
27040;BME280;14589;51.578;7.306;2024-02-26T09:46:33;99675.66;;;6.22;100.00
27040;BME280;14589;51.578;7.306;2024-02-26T09:49:04;99687.81;;;6.26;100.00
27040;BME280;14589;51.578;7.306;2024-02-26T09:51:35;99680.13;;;6.31;100.00
27040;BME280;14589;51.578;7.306;2024-02-26T09:54:09;99680.03;;;6.23;100.00
27040;BME280;14589;51.578;7.306;2024-02-26T09:56:39;99697.84;;;6.33;100.00
27040;BME280;14589;51.578;7.306;2024-02-26T09:59:15;99688.22;;;6.31;100.00
27040;BME280;14589;51.578;7.306;2024-02-26T10:01:47;99694.69;;;6.38;100.00
27040;BME280;14589;51.578;7.306;2024-02-26T10:04:19;99689.56;;;6.44;100.00
27040;BME280;14589;51.578;7.306;2024-02-26T10:06:51;99681.63;;;6.53;100.00
27040;BME280;14589;51.578;7.306;2024-02-26T10:09:21;99689.97;;;6.49;100.00
27040;BME280;14589;51.578;7.306;2024-02-26T10:11:52;99695.34;;;6.59;100.00
27040;BME280;14589;51.578;7.306;2024-02-26T10:14:22;99690.63;;;6.61;100.00
27040;BME280;14589;51.578;7.306;2024-02-26T10:16:53;99695.72;;;6.64;100.00
27040;BME280;14589;51.578;7.306;2024-02-26T10:19:28;99686.06;;;6.71;100.00
27040;BME280;14589;51.578;7.306;2024-02-26T10:22:01;99697.94;;;6.78;98.83
27040;BME280;14589;51.578;7.306;2024-02-26T10:24:31;99702.72;;;6.84;99.85
27040;BME280;14589;51.578;7.306;2024-02-26T10:27:02;99703.78;;;6.91;98.65
27040;BME280;14589;51.578;7.306;2024-02-26T10:29:33;99711.44;;;6.96;96.03
27040;BME280;14589;51.578;7.306;2024-02-26T10:32:03;99706.59;;;7.00;94.89
27040;BME280;14589;51.578;7.306;2024-02-26T10:34:35;99713.22;;;7.05;94.60
27040;BME280;14589;51.578;7.306;2024-02-26T10:37:08;99714.06;;;7.06;94.60
27040;BME280;14589;51.578;7.306;2024-02-26T10:39:46;99700.72;;;7.04;93.26
27040;BME280;14589;51.578;7.306;2024-02-26T10:42:16;99728.25;;;7.08;92.54
27040;BME280;14589;51.578;7.306;2024-02-26T10:44:49;99727.09;;;7.10;92.66
27040;BME280;14589;51.578;7.306;2024-02-26T10:47:20;99734.63;;;7.07;89.70
27040;BME280;14589;51.578;7.306;2024-02-26T10:49:51;99732.22;;;7.04;90.92
27040;BME280;14589;51.578;7.306;2024-02-26T10:52:22;99743.00;;;7.04;91.66
27040;BME280;14589;51.578;7.306;2024-02-26T10:54:56;99746.72;;;7.03;92.45
27040;BME280;14589;51.578;7.306;2024-02-26T10:57:29;99759.88;;;7.06;91.19
27040;BME280;14589;51.578;7.306;2024-02-26T11:00:02;99749.09;;;7.06;92.12
27040;BME280;14589;51.578;7.306;2024-02-26T11:02:35;99750.28;;;7.03;92.61
27040;BME280;14589;51.578;7.306;2024-02-26T11:05:07;99761.06;;;7.03;90.76
27040;BME280;14589;51.578;7.306;2024-02-26T11:07:38;99769.28;;;7.02;92.09
27040;BME280;14589;51.578;7.306;2024-02-26T11:10:11;99775.53;;;7.02;90.61
27040;BME280;14589;51.578;7.306;2024-02-26T11:12:42;99774.28;;;6.97;91.76
27040;BME280;14589;51.578;7.306;2024-02-26T11:15:13;99768.31;;;6.93;91.32
27040;BME280;14589;51.578;7.306;2024-02-26T11:17:46;99771.97;;;7.02;91.59
27040;BME280;14589;51.578;7.306;2024-02-26T11:20:17;99769.75;;;6.97;91.37
27040;BME280;14589;51.578;7.306;2024-02-26T11:22:49;99777.38;;;7.02;92.36
27040;BME280;14589;51.578;7.306;2024-02-26T11:25:19;99778.50;;;6.99;92.84
27040;BME280;14589;51.578;7.306;2024-02-26T11:28:02;99780.34;;;6.99;93.65
27040;BME280;14589;51.578;7.306;2024-02-26T11:30:36;99780.34;;;6.99;92.68
27040;BME280;14589;51.578;7.306;2024-02-26T11:33:09;99792.81;;;7.09;92.62
27040;BME280;14589;51.578;7.306;2024-02-26T11:35:41;99785.53;;;7.10;90.95
27040;BME280;14589;51.578;7.306;2024-02-26T11:38:17;99787.56;;;7.08;92.11
27040;BME280;14589;51.578;7.306;2024-02-26T11:40:50;99796.88;;;7.13;90.75
27040;BME280;14589;51.578;7.306;2024-02-26T11:43:50;99791.94;;;7.09;91.91
27040;BME280;14589;51.578;7.306;2024-02-26T11:51:55;99791.44;;;7.23;91.78
27040;BME280;14589;51.578;7.306;2024-02-26T11:54:48;99785.50;;;7.19;91.35
27040;BME280;14589;51.578;7.306;2024-02-26T12:05:16;99806.47;;;7.25;90.87
27040;BME280;14589;51.578;7.306;2024-02-26T12:07:48;99802.53;;;7.20;89.83
27040;BME280;14589;51.578;7.306;2024-02-26T12:10:28;99799.00;;;7.10;89.41
27040;BME280;14589;51.578;7.306;2024-02-26T12:13:00;99817.53;;;7.22;91.29
27040;BME280;14589;51.578;7.306;2024-02-26T12:15:33;99819.50;;;7.30;90.94
27040;BME280;14589;51.578;7.306;2024-02-26T12:18:06;99823.16;;;7.39;92.07
27040;BME280;14589;51.578;7.306;2024-02-26T12:20:43;99825.53;;;7.42;92.45
27040;BME280;14589;51.578;7.306;2024-02-26T12:23:17;99824.00;;;7.39;93.53
27040;BME280;14589;51.578;7.306;2024-02-26T12:25:47;99830.25;;;7.40;93.41
27040;BME280;14589;51.578;7.306;2024-02-26T12:28:18;99835.47;;;7.41;91.31
27040;BME280;14589;51.578;7.306;2024-02-26T12:30:48;99838.94;;;7.34;90.68
27040;BME280;14589;51.578;7.306;2024-02-26T12:33:19;99834.56;;;7.23;90.46
27040;BME280;14589;51.578;7.306;2024-02-26T12:35:49;99836.88;;;7.18;90.30
27040;BME280;14589;51.578;7.306;2024-02-26T12:38:20;99827.78;;;7.19;92.20
27040;BME280;14589;51.578;7.306;2024-02-26T12:40:51;99825.53;;;7.14;91.88
27040;BME280;14589;51.578;7.306;2024-02-26T12:43:21;99827.06;;;7.17;94.06
27040;BME280;14589;51.578;7.306;2024-02-26T12:45:52;99815.50;;;7.07;92.73
27040;BME280;14589;51.578;7.306;2024-02-26T12:48:22;99812.66;;;7.08;94.05
27040;BME280;14589;51.578;7.306;2024-02-26T12:50:54;99812.50;;;7.10;94.77
27040;BME280;14589;51.578;7.306;2024-02-26T12:53:24;99808.53;;;7.14;93.96
27040;BME280;14589;51.578;7.306;2024-02-26T12:55:55;99820.03;;;7.06;92.74
27040;BME280;14589;51.578;7.306;2024-02-26T12:58:26;99817.47;;;7.14;93.87
27040;BME280;14589;51.578;7.306;2024-02-26T13:00:58;99817.47;;;7.14;93.11
27040;BME280;14589;51.578;7.306;2024-02-26T13:03:28;99836.88;;;7.18;94.43
27040;BME280;14589;51.578;7.306;2024-02-26T13:05:59;99837.47;;;7.12;91.09
27040;BME280;14589;51.578;7.306;2024-02-26T13:08:32;99824.94;;;7.20;93.16
27040;BME280;14589;51.578;7.306;2024-02-26T13:11:02;99841.59;;;7.16;93.72
27040;BME280;14589;51.578;7.306;2024-02-26T13:13:33;99861.25;;;7.26;92.83
27040;BME280;14589;51.578;7.306;2024-02-26T13:16:04;99861.84;;;7.20;91.73
27040;BME280;14589;51.578;7.306;2024-02-26T13:18:36;99862.09;;;7.26;93.57
27040;BME280;14589;51.578;7.306;2024-02-26T13:21:11;99862.94;;;7.27;93.17
27040;BME280;14589;51.578;7.306;2024-02-26T13:23:43;99877.28;;;7.27;91.94
27040;BME280;14589;51.578;7.306;2024-02-26T13:26:13;99871.91;;;7.27;93.76
27040;BME280;14589;51.578;7.306;2024-02-26T13:28:44;99879.53;;;7.32;93.14
27040;BME280;14589;51.578;7.306;2024-02-26T13:31:15;99880.38;;;7.32;91.70
27040;BME280;14589;51.578;7.306;2024-02-26T13:33:46;99878.94;;;7.38;92.85
27040;BME280;14589;51.578;7.306;2024-02-26T13:36:16;99888.00;;;7.37;93.01
27040;BME280;14589;51.578;7.306;2024-02-26T13:38:54;99894.84;;;7.31;92.81
27040;BME280;14589;51.578;7.306;2024-02-26T13:41:25;99888.72;;;7.39;91.90